createdAt,value
2018-03-03T00:00:19.840Z,1003.62
2018-03-03T00:01:20.049Z,1003.57
2018-03-03T00:02:19.763Z,1003.63
2018-03-03T00:03:19.721Z,1003.59
2018-03-03T00:04:19.683Z,1003.55
2018-03-03T00:05:19.649Z,1003.59
2018-03-03T00:06:19.599Z,1003.61
2018-03-03T00:07:19.861Z,1003.60
2018-03-03T00:08:19.523Z,1003.63
2018-03-03T00:09:19.482Z,1003.65
2018-03-03T00:10:19.449Z,1003.64
2018-03-03T00:11:19.404Z,1003.65
2018-03-03T00:12:19.667Z,1003.64
2018-03-03T00:13:19.322Z,1003.67
2018-03-03T00:14:19.283Z,1003.67
2018-03-03T00:15:19.248Z,1003.75
2018-03-03T00:16:19.213Z,1003.71
2018-03-03T00:17:19.163Z,1003.69
2018-03-03T00:18:19.119Z,1003.70
2018-03-03T00:19:19.087Z,1003.74
2018-03-03T00:20:19.050Z,1003.70
2018-03-03T00:21:19.006Z,1003.69
2018-03-03T00:22:18.959Z,1003.67
2018-03-03T00:23:18.916Z,1003.68
2018-03-03T00:24:18.891Z,1003.65
2018-03-03T00:25:18.844Z,1003.67
2018-03-03T00:26:18.808Z,1003.65
2018-03-03T00:27:18.773Z,1003.65
2018-03-03T00:28:18.728Z,1003.68
2018-03-03T00:29:18.682Z,1003.67
2018-03-03T00:30:18.898Z,1003.65
2018-03-03T00:31:18.608Z,1003.64
2018-03-03T00:32:18.566Z,1003.62
2018-03-03T00:33:18.521Z,1003.60
2018-03-03T00:34:18.482Z,1003.61
2018-03-03T00:35:18.440Z,1003.62
2018-03-03T00:36:18.450Z,1003.62
2018-03-03T00:37:18.364Z,1003.60
2018-03-03T00:38:18.324Z,1003.62
2018-03-03T00:39:18.282Z,1003.66
2018-03-03T00:40:18.244Z,1003.62
2018-03-03T00:41:18.201Z,1003.60
2018-03-03T00:42:18.465Z,1003.63
2018-03-03T00:43:18.125Z,1003.60
2018-03-03T00:44:18.075Z,1003.65
2018-03-03T00:45:18.047Z,1003.59
2018-03-03T00:46:18.004Z,1003.62
2018-03-03T00:47:17.964Z,1003.58
2018-03-03T00:48:18.215Z,1003.58
2018-03-03T00:49:17.874Z,1003.60
2018-03-03T00:50:17.837Z,1003.60
2018-03-03T00:51:17.805Z,1003.60
2018-03-03T00:52:17.766Z,1003.57
2018-03-03T00:53:17.720Z,1003.57
2018-03-03T00:54:17.674Z,1003.60
2018-03-03T00:55:17.639Z,1003.63
2018-03-03T00:56:17.608Z,1003.65
2018-03-03T00:57:17.562Z,1003.58
2018-03-03T00:58:17.523Z,1003.59
2018-03-03T00:59:17.489Z,1003.54
2018-03-03T01:00:17.435Z,1003.56
2018-03-03T01:01:17.402Z,1003.54
2018-03-03T01:02:17.362Z,1003.58
2018-03-03T01:03:17.317Z,1003.64
2018-03-03T01:04:17.276Z,1003.62
2018-03-03T01:05:17.236Z,1003.58
2018-03-03T01:06:17.197Z,1003.62
2018-03-03T01:07:17.152Z,1003.64
2018-03-03T01:08:17.121Z,1003.64
2018-03-03T01:09:17.078Z,1003.70
2018-03-03T01:10:17.037Z,1003.64
2018-03-03T01:11:16.993Z,1003.66
2018-03-03T01:12:16.959Z,1003.73
2018-03-03T01:13:16.926Z,1003.76
2018-03-03T01:14:16.884Z,1003.73
2018-03-03T01:15:16.839Z,1003.63
2018-03-03T01:16:16.791Z,1003.71
2018-03-03T01:17:16.748Z,1003.72
2018-03-03T01:18:16.716Z,1003.70
2018-03-03T01:19:16.676Z,1003.71
2018-03-03T01:20:16.633Z,1003.66
2018-03-03T01:21:16.597Z,1003.65
2018-03-03T01:22:16.808Z,1003.74
2018-03-03T01:23:16.519Z,1003.66
2018-03-03T01:24:16.478Z,1003.67
2018-03-03T01:25:16.431Z,1003.69
2018-03-03T01:26:16.395Z,1003.76
2018-03-03T01:27:16.357Z,1003.66
2018-03-03T01:28:16.309Z,1003.73
2018-03-03T01:29:16.266Z,1003.77
2018-03-03T01:30:16.235Z,1003.73
2018-03-03T01:31:16.192Z,1003.70
2018-03-03T01:32:16.158Z,1003.63
2018-03-03T01:33:16.110Z,1003.67
2018-03-03T01:34:16.073Z,1003.63
2018-03-03T01:35:16.032Z,1003.56
2018-03-03T01:36:15.989Z,1003.63
2018-03-03T01:37:15.966Z,1003.63
2018-03-03T01:38:15.908Z,1003.59
2018-03-03T01:39:15.874Z,1003.69
2018-03-03T01:40:15.826Z,1003.70
2018-03-03T01:41:15.790Z,1003.69
2018-03-03T01:42:15.749Z,1003.70
2018-03-03T01:43:15.711Z,1003.70
2018-03-03T01:44:15.664Z,1003.70
2018-03-03T01:45:15.624Z,1003.68
2018-03-03T01:46:15.835Z,1003.71
2018-03-03T01:47:15.548Z,1003.70
2018-03-03T01:48:15.504Z,1003.68
2018-03-03T01:49:15.465Z,1003.72
2018-03-03T01:50:15.419Z,1003.72
2018-03-03T01:51:15.378Z,1003.70
2018-03-03T01:52:15.643Z,1003.66
2018-03-03T01:53:15.310Z,1003.69
2018-03-03T01:54:15.263Z,1003.66
2018-03-03T01:55:15.230Z,1003.61
2018-03-03T01:56:15.183Z,1003.62
2018-03-03T01:57:15.144Z,1003.59
2018-03-03T01:58:15.408Z,1003.54
2018-03-03T01:59:15.066Z,1003.54
2018-03-03T02:00:15.020Z,1003.59
2018-03-03T02:01:14.976Z,1003.60
2018-03-03T02:02:14.937Z,1003.56
2018-03-03T02:03:14.903Z,1003.54
2018-03-03T02:04:14.863Z,1003.54
2018-03-03T02:05:14.831Z,1003.49
2018-03-03T02:06:14.780Z,1003.52
2018-03-03T02:07:14.738Z,1003.48
2018-03-03T02:08:14.702Z,1003.52
2018-03-03T02:09:14.657Z,1003.51
2018-03-03T02:10:14.617Z,1003.42
2018-03-03T02:11:14.576Z,1003.50
2018-03-03T02:12:14.532Z,1003.52
2018-03-03T02:13:14.490Z,1003.50
2018-03-03T02:14:14.460Z,1003.47
2018-03-03T02:15:14.414Z,1003.53
2018-03-03T02:16:14.373Z,1003.46
2018-03-03T02:17:14.330Z,1003.44
2018-03-03T02:18:14.291Z,1003.43
2018-03-03T02:19:14.248Z,1003.44
2018-03-03T02:20:14.209Z,1003.45
2018-03-03T02:21:14.171Z,1003.48
2018-03-03T02:22:14.135Z,1003.47
2018-03-03T02:23:14.093Z,1003.44
2018-03-03T02:24:14.055Z,1003.46
2018-03-03T02:25:14.011Z,1003.45
2018-03-03T02:26:13.968Z,1003.46
2018-03-03T02:27:13.927Z,1003.43
2018-03-03T02:28:13.892Z,1003.50
2018-03-03T02:29:13.847Z,1003.41
2018-03-03T02:30:13.819Z,1003.44
2018-03-03T02:31:13.769Z,1003.42
2018-03-03T02:32:13.727Z,1003.45
2018-03-03T02:33:13.688Z,1003.45
2018-03-03T02:34:13.642Z,1003.47
2018-03-03T02:35:13.604Z,1003.47
2018-03-03T02:36:13.573Z,1003.44
2018-03-03T02:37:13.529Z,1003.47
2018-03-03T02:38:13.731Z,1003.52
2018-03-03T02:39:13.443Z,1003.51
2018-03-03T02:40:13.409Z,1003.50
2018-03-03T02:41:13.364Z,1003.48
2018-03-03T02:42:13.329Z,1003.46
2018-03-03T02:43:13.285Z,1003.45
2018-03-03T02:44:13.544Z,1003.39
2018-03-03T02:45:13.204Z,1003.36
2018-03-03T02:46:13.163Z,1003.37
2018-03-03T02:47:13.130Z,1003.35
2018-03-03T02:48:13.082Z,1003.39
2018-03-03T02:49:13.031Z,1003.37
2018-03-03T02:50:12.993Z,1003.37
2018-03-03T02:51:12.970Z,1003.33
2018-03-03T02:52:12.916Z,1003.29
2018-03-03T02:53:12.890Z,1003.27
2018-03-03T02:54:12.882Z,1003.31
2018-03-03T02:55:12.796Z,1003.23
2018-03-03T02:56:12.758Z,1003.22
2018-03-03T02:57:12.722Z,1003.30
2018-03-03T02:58:12.675Z,1003.21
2018-03-03T02:59:12.635Z,1003.30
2018-03-03T03:00:12.593Z,1003.28
2018-03-03T03:01:12.549Z,1003.25
2018-03-03T03:02:12.765Z,1003.27
2018-03-03T03:03:12.472Z,1003.25
2018-03-03T03:04:12.427Z,1003.25
2018-03-03T03:05:12.386Z,1003.28
2018-03-03T03:06:12.345Z,1003.27
2018-03-03T03:07:12.334Z,1003.23
2018-03-03T03:08:12.267Z,1003.22
2018-03-03T03:09:12.234Z,1003.17
2018-03-03T03:10:12.181Z,1003.21
2018-03-03T03:11:12.144Z,1003.23
2018-03-03T03:12:12.103Z,1003.22
2018-03-03T03:13:12.068Z,1003.22
2018-03-03T03:14:12.031Z,1003.19
2018-03-03T03:15:11.990Z,1003.19
2018-03-03T03:16:11.942Z,1003.19
2018-03-03T03:17:11.907Z,1003.19
2018-03-03T03:18:11.867Z,1003.19
2018-03-03T03:19:12.077Z,1003.17
2018-03-03T03:20:11.780Z,1003.22
2018-03-03T03:21:11.738Z,1003.22
2018-03-03T03:22:11.696Z,1003.23
2018-03-03T03:23:11.659Z,1003.23
2018-03-03T03:24:11.622Z,1003.15
2018-03-03T03:25:11.585Z,1003.16
2018-03-03T03:26:11.551Z,1003.08
2018-03-03T03:27:11.503Z,1003.14
2018-03-03T03:28:11.452Z,1003.13
2018-03-03T03:29:11.413Z,1003.11
2018-03-03T03:30:11.376Z,1003.10
2018-03-03T03:31:11.641Z,1003.12
2018-03-03T03:32:11.293Z,1003.10
2018-03-03T03:33:11.252Z,1003.09
2018-03-03T03:34:11.213Z,1003.14
2018-03-03T03:35:11.179Z,1003.22
2018-03-03T03:36:11.134Z,1003.12
2018-03-03T03:37:11.695Z,1003.15
2018-03-03T03:38:11.050Z,1003.13
2018-03-03T03:39:11.014Z,1003.16
2018-03-03T03:40:10.967Z,1003.09
2018-03-03T03:41:10.927Z,1003.10
2018-03-03T03:42:10.888Z,1003.13
2018-03-03T03:43:10.853Z,1003.17
2018-03-03T03:44:10.801Z,1003.17
2018-03-03T03:45:10.764Z,1003.25
2018-03-03T03:46:10.724Z,1003.19
2018-03-03T03:47:10.692Z,1003.20
2018-03-03T03:48:10.646Z,1003.26
2018-03-03T03:49:10.860Z,1003.18
2018-03-03T03:50:10.564Z,1003.23
2018-03-03T03:51:10.519Z,1003.21
2018-03-03T03:52:10.482Z,1003.20
2018-03-03T03:53:10.442Z,1003.23
2018-03-03T03:54:10.402Z,1003.20
2018-03-03T03:55:10.363Z,1003.18
2018-03-03T03:56:10.326Z,1003.20
2018-03-03T03:57:10.281Z,1003.21
2018-03-03T03:58:10.247Z,1003.25
2018-03-03T03:59:10.201Z,1003.24
2018-03-03T04:00:10.157Z,1003.26
2018-03-03T04:01:10.124Z,1003.24
2018-03-03T04:02:10.069Z,1003.21
2018-03-03T04:03:10.030Z,1003.22
2018-03-03T04:04:10.042Z,1003.18
2018-03-03T04:05:09.953Z,1003.19
2018-03-03T04:06:09.909Z,1003.21
2018-03-03T04:07:09.873Z,1003.24
2018-03-03T04:08:09.836Z,1003.22
2018-03-03T04:09:09.791Z,1003.18
2018-03-03T04:10:09.748Z,1003.17
2018-03-03T04:11:09.710Z,1003.11
2018-03-03T04:12:09.963Z,1003.09
2018-03-03T04:13:09.831Z,1003.16
2018-03-03T04:14:09.586Z,1003.12
2018-03-03T04:15:09.551Z,1003.16
2018-03-03T04:16:09.503Z,1003.09
2018-03-03T04:17:09.467Z,1003.15
2018-03-03T04:18:09.425Z,1003.15
2018-03-03T04:19:09.386Z,1003.16
2018-03-03T04:20:09.351Z,1003.15
2018-03-03T04:21:09.307Z,1003.14
2018-03-03T04:22:09.259Z,1003.17
2018-03-03T04:23:09.517Z,1003.13
2018-03-03T04:24:09.180Z,1003.11
2018-03-03T04:25:09.144Z,1003.11
2018-03-03T04:26:09.119Z,1003.11
2018-03-03T04:27:09.062Z,1003.10
2018-03-03T04:28:09.015Z,1003.14
2018-03-03T04:29:08.978Z,1003.14
2018-03-03T04:30:08.948Z,1003.15
2018-03-03T04:31:08.895Z,1003.09
2018-03-03T04:32:08.858Z,1003.19
2018-03-03T04:33:08.810Z,1003.22
2018-03-03T04:34:08.783Z,1003.21
2018-03-03T04:35:09.012Z,1003.12
2018-03-03T04:36:08.697Z,1003.05
2018-03-03T04:37:08.653Z,1003.09
2018-03-03T04:38:08.613Z,1003.08
2018-03-03T04:39:08.565Z,1003.06
2018-03-03T04:40:08.537Z,1003.09
2018-03-03T04:41:08.989Z,1003.04
2018-03-03T04:42:08.450Z,1003.03
2018-03-03T04:43:08.413Z,1003.01
2018-03-03T04:44:08.362Z,1003.06
2018-03-03T04:45:08.325Z,1003.02
2018-03-03T04:46:08.293Z,1003.00
2018-03-03T04:47:08.545Z,1002.94
2018-03-03T04:48:08.200Z,1002.95
2018-03-03T04:49:08.157Z,1002.92
2018-03-03T04:50:08.116Z,1002.93
2018-03-03T04:51:08.080Z,1002.96
2018-03-03T04:52:08.041Z,1002.91
2018-03-03T04:53:07.996Z,1002.93
2018-03-03T04:54:07.961Z,1002.95
2018-03-03T04:55:07.918Z,1002.93
2018-03-03T04:56:07.890Z,1002.85
2018-03-03T04:57:07.837Z,1002.89
2018-03-03T04:58:07.793Z,1002.93
2018-03-03T04:59:08.003Z,1002.89
2018-03-03T05:00:07.721Z,1002.91
2018-03-03T05:01:07.671Z,1002.88
2018-03-03T05:02:07.631Z,1002.90
2018-03-03T05:03:07.596Z,1002.89
2018-03-03T05:04:07.548Z,1002.86
2018-03-03T05:05:07.512Z,1002.93
2018-03-03T05:06:07.467Z,1002.86
2018-03-03T05:07:07.427Z,1002.86
2018-03-03T05:08:07.386Z,1002.87
2018-03-03T05:09:07.352Z,1002.87
2018-03-03T05:10:07.303Z,1002.90
2018-03-03T05:11:07.267Z,1002.92
2018-03-03T05:12:07.233Z,1002.89
2018-03-03T05:13:07.182Z,1002.92
2018-03-03T05:14:07.142Z,1002.90
2018-03-03T05:15:07.112Z,1002.92
2018-03-03T05:16:07.309Z,1002.93
2018-03-03T05:17:07.014Z,1002.92
2018-03-03T05:18:06.982Z,1002.88
2018-03-03T05:19:06.956Z,1002.87
2018-03-03T05:20:06.894Z,1002.85
2018-03-03T05:21:06.852Z,1002.85
2018-03-03T05:22:07.120Z,1002.82
2018-03-03T05:23:06.769Z,1002.80
2018-03-03T05:24:06.732Z,1002.85
2018-03-03T05:25:06.699Z,1002.81
2018-03-03T05:26:06.649Z,1002.86
2018-03-03T05:27:06.611Z,1002.86
2018-03-03T05:28:06.825Z,1002.86
2018-03-03T05:29:06.535Z,1002.92
2018-03-03T05:30:06.490Z,1002.85
2018-03-03T05:31:06.454Z,1002.85
2018-03-03T05:32:06.400Z,1002.88
2018-03-03T05:33:06.919Z,1002.88
2018-03-03T05:34:06.324Z,1002.83
2018-03-03T05:35:06.280Z,1002.88
2018-03-03T05:36:06.243Z,1002.91
2018-03-03T05:37:06.205Z,1002.85
2018-03-03T05:38:06.175Z,1002.83
2018-03-03T05:39:06.124Z,1002.86
2018-03-03T05:40:06.075Z,1002.89
2018-03-03T05:41:06.040Z,1002.81
2018-03-03T05:42:06.000Z,1002.82
2018-03-03T05:43:05.967Z,1002.83
2018-03-03T05:44:05.911Z,1002.90
2018-03-03T05:45:05.873Z,1002.92
2018-03-03T05:46:05.831Z,1002.91
2018-03-03T05:47:05.791Z,1002.95
2018-03-03T05:48:05.754Z,1002.88
2018-03-03T05:49:05.714Z,1002.91
2018-03-03T05:50:05.667Z,1002.90
2018-03-03T05:51:06.433Z,1002.89
2018-03-03T05:52:05.596Z,1002.88
2018-03-03T05:53:05.550Z,1002.86
2018-03-03T05:54:05.512Z,1002.83
2018-03-03T05:55:05.471Z,1002.87
2018-03-03T05:56:05.419Z,1002.91
2018-03-03T05:57:06.436Z,1002.88
2018-03-03T05:58:05.343Z,1002.90
2018-03-03T05:59:05.304Z,1002.88
2018-03-03T06:00:05.256Z,1002.95
2018-03-03T06:01:05.223Z,1002.98
2018-03-03T06:02:05.177Z,1002.90
2018-03-03T06:03:05.136Z,1002.95
2018-03-03T06:04:05.107Z,1002.95
2018-03-03T06:05:05.058Z,1002.95
2018-03-03T06:06:05.021Z,1002.93
2018-03-03T06:07:04.972Z,1002.93
2018-03-03T06:08:04.936Z,1002.96
2018-03-03T06:09:04.905Z,1002.92
2018-03-03T06:10:04.861Z,1002.95
2018-03-03T06:11:04.813Z,1002.96
2018-03-03T06:12:04.776Z,1002.97
2018-03-03T06:13:04.732Z,1002.96
2018-03-03T06:14:04.691Z,1003.00
2018-03-03T06:15:04.647Z,1003.01
2018-03-03T06:16:04.608Z,1002.96
2018-03-03T06:17:04.563Z,1002.92
2018-03-03T06:18:04.525Z,1002.95
2018-03-03T06:19:04.485Z,1002.99
2018-03-03T06:20:04.446Z,1002.96
2018-03-03T06:21:04.427Z,1002.98
2018-03-03T06:22:04.362Z,1002.98
2018-03-03T06:23:04.324Z,1003.01
2018-03-03T06:24:04.284Z,1002.96
2018-03-03T06:25:04.242Z,1002.96
2018-03-03T06:26:04.198Z,1003.00
2018-03-03T06:27:04.158Z,1003.03
2018-03-03T06:28:04.115Z,1003.02
2018-03-03T06:29:04.076Z,1003.08
2018-03-03T06:30:04.041Z,1003.10
2018-03-03T06:31:04.000Z,1003.19
2018-03-03T06:32:03.950Z,1003.17
2018-03-03T06:33:03.918Z,1003.24
2018-03-03T06:34:03.874Z,1003.21
2018-03-03T06:35:03.829Z,1003.17
2018-03-03T06:36:03.793Z,1003.18
2018-03-03T06:37:03.755Z,1003.18
2018-03-03T06:38:03.719Z,1003.17
2018-03-03T06:39:03.672Z,1003.21
2018-03-03T06:40:03.634Z,1003.22
2018-03-03T06:41:03.593Z,1003.25
2018-03-03T06:42:03.560Z,1003.23
2018-03-03T06:43:03.513Z,1003.24
2018-03-03T06:44:03.470Z,1003.20
2018-03-03T06:45:03.432Z,1003.21
2018-03-03T06:46:03.393Z,1003.21
2018-03-03T06:47:03.356Z,1003.20
2018-03-03T06:48:03.315Z,1003.21
2018-03-03T06:49:03.528Z,1003.18
2018-03-03T06:50:03.231Z,1003.18
2018-03-03T06:51:03.192Z,1003.15
2018-03-03T06:52:03.161Z,1003.26
2018-03-03T06:53:03.129Z,1003.24
2018-03-03T06:54:03.071Z,1003.25
2018-03-03T06:55:03.285Z,1003.26
2018-03-03T06:56:03.004Z,1003.21
2018-03-03T06:57:02.958Z,1003.24
2018-03-03T06:58:02.923Z,1003.20
2018-03-03T06:59:02.890Z,1003.20
2018-03-03T07:00:02.846Z,1003.19
2018-03-03T07:01:02.804Z,1003.20
2018-03-03T07:02:02.766Z,1003.24
2018-03-03T07:03:02.731Z,1003.23
2018-03-03T07:04:02.690Z,1003.12
2018-03-03T07:05:02.648Z,1003.21
2018-03-03T07:06:02.614Z,1003.17
2018-03-03T07:07:02.577Z,1003.21
2018-03-03T07:08:02.536Z,1003.27
2018-03-03T07:09:02.499Z,1003.32
2018-03-03T07:10:02.456Z,1003.30
2018-03-03T07:11:02.421Z,1003.33
2018-03-03T07:12:02.380Z,1003.34
2018-03-03T07:13:02.344Z,1003.45
2018-03-03T07:14:02.306Z,1003.46
2018-03-03T07:15:02.269Z,1003.48
2018-03-03T07:16:02.226Z,1003.47
2018-03-03T07:17:02.190Z,1003.52
2018-03-03T07:18:02.160Z,1003.50
2018-03-03T07:19:02.121Z,1003.57
2018-03-03T07:20:02.076Z,1003.57
2018-03-03T07:21:02.043Z,1003.57
2018-03-03T07:22:02.002Z,1003.60
2018-03-03T07:23:01.964Z,1003.67
2018-03-03T07:24:01.934Z,1003.60
2018-03-03T07:25:02.143Z,1003.65
2018-03-03T07:26:01.858Z,1003.69
2018-03-03T07:27:01.817Z,1003.72
2018-03-03T07:28:01.781Z,1003.74
2018-03-03T07:29:01.759Z,1003.76
2018-03-03T07:30:01.724Z,1003.76
2018-03-03T07:31:01.672Z,1003.78
2018-03-03T07:32:01.639Z,1003.78
2018-03-03T07:33:01.604Z,1003.84
2018-03-03T07:34:01.565Z,1003.82
2018-03-03T07:35:01.528Z,1003.82
2018-03-03T07:36:01.788Z,1003.91
2018-03-03T07:37:01.448Z,1003.91
2018-03-03T07:38:01.423Z,1003.86
2018-03-03T07:39:01.382Z,1003.78
2018-03-03T07:40:01.346Z,1003.82
2018-03-03T07:41:01.316Z,1003.80
2018-03-03T07:42:01.276Z,1003.83
2018-03-03T07:43:01.240Z,1003.84
2018-03-03T07:44:01.204Z,1003.88
2018-03-03T07:45:01.175Z,1003.85
2018-03-03T07:46:01.134Z,1003.83
2018-03-03T07:47:01.096Z,1003.86
2018-03-03T07:48:01.063Z,1003.88
2018-03-03T07:49:01.028Z,1003.91
2018-03-03T07:50:00.991Z,1003.81
2018-03-03T07:51:00.955Z,1003.76
2018-03-03T07:52:00.921Z,1003.81
2018-03-03T07:53:00.886Z,1003.83
2018-03-03T07:54:01.103Z,1003.75
2018-03-03T07:55:00.828Z,1003.75
2018-03-03T07:56:00.780Z,1003.77
2018-03-03T07:57:00.747Z,1003.75
2018-03-03T07:58:00.721Z,1003.78
2018-03-03T07:59:00.690Z,1003.83
2018-03-03T08:00:00.644Z,1003.82
2018-03-03T08:01:00.612Z,1003.68
2018-03-03T08:02:00.575Z,1003.70
2018-03-03T08:03:00.543Z,1003.77
2018-03-03T08:04:00.511Z,1003.81
2018-03-03T08:05:00.488Z,1003.85
2018-03-03T08:06:00.440Z,1003.94
2018-03-03T08:07:00.407Z,1003.90
2018-03-03T08:08:00.373Z,1003.91
2018-03-03T08:09:00.344Z,1003.99
2018-03-03T08:10:00.313Z,1004.05
2018-03-03T08:11:00.530Z,1004.04
2018-03-03T08:12:00.251Z,1004.11
2018-03-03T08:13:00.207Z,1004.10
2018-03-03T08:14:00.176Z,1004.11
2018-03-03T08:15:00.150Z,1004.16
2018-03-03T08:16:00.113Z,1004.29
2018-03-03T08:17:00.084Z,1004.38
2018-03-03T08:18:00.042Z,1004.42
2018-03-03T08:19:00.012Z,1004.57
2018-03-03T08:19:59.975Z,1004.59
2018-03-03T08:20:59.945Z,1004.61
2018-03-03T08:21:59.914Z,1004.62
2018-03-03T08:23:00.180Z,1004.66
2018-03-03T08:23:59.849Z,1004.72
2018-03-03T08:24:59.823Z,1004.66
2018-03-03T08:25:59.783Z,1004.69
2018-03-03T08:26:59.760Z,1004.72
2018-03-03T08:27:59.713Z,1004.81
2018-03-03T08:28:59.936Z,1004.69
2018-03-03T08:29:59.658Z,1004.78
2018-03-03T08:30:59.626Z,1004.77
2018-03-03T08:31:59.584Z,1004.82
2018-03-03T08:32:59.560Z,1004.75
2018-03-03T08:33:59.528Z,1004.75
2018-03-03T08:34:59.496Z,1004.78
2018-03-03T08:35:59.467Z,1004.76
2018-03-03T08:36:59.435Z,1004.77
2018-03-03T08:37:59.397Z,1004.75
2018-03-03T08:38:59.377Z,1004.76
2018-03-03T08:39:59.341Z,1004.81
2018-03-03T08:40:59.319Z,1004.82
2018-03-03T08:41:59.291Z,1004.72
2018-03-03T08:42:59.252Z,1004.71
2018-03-03T08:43:59.229Z,1004.63
2018-03-03T08:44:59.192Z,1004.64
2018-03-03T08:45:59.165Z,1004.46
2018-03-03T08:46:59.133Z,1004.35
2018-03-03T08:47:59.095Z,1004.22
2018-03-03T08:48:59.069Z,1004.16
2018-03-03T08:49:59.044Z,1004.15
2018-03-03T08:50:59.011Z,1004.00
2018-03-03T08:51:58.999Z,1004.07
2018-03-03T08:52:58.952Z,1004.18
2018-03-03T08:53:58.918Z,1004.16
2018-03-03T08:54:58.889Z,1004.10
2018-03-03T08:55:58.859Z,1004.12
2018-03-03T08:56:58.832Z,1004.01
2018-03-03T08:57:59.056Z,1003.98
2018-03-03T08:58:58.775Z,1003.90
2018-03-03T08:59:58.741Z,1003.98
2018-03-03T09:00:58.715Z,1003.97
2018-03-03T09:01:58.682Z,1004.13
2018-03-03T09:02:58.659Z,1004.14
2018-03-03T09:03:58.621Z,1004.07
2018-03-03T09:04:58.592Z,1004.11
2018-03-03T09:05:58.561Z,1004.09
2018-03-03T09:06:58.533Z,1004.08
2018-03-03T09:07:58.505Z,1004.13
2018-03-03T09:08:58.475Z,1004.09
2018-03-03T09:09:58.742Z,1004.09
2018-03-03T09:10:58.415Z,1004.15
2018-03-03T09:11:58.389Z,1003.97
2018-03-03T09:12:58.358Z,1004.05
2018-03-03T09:13:58.334Z,1003.99
2018-03-03T09:14:58.301Z,1003.89
2018-03-03T09:15:58.526Z,1003.95
2018-03-03T09:16:58.236Z,1003.83
2018-03-03T09:17:58.213Z,1003.90
2018-03-03T09:18:58.189Z,1003.85
2018-03-03T09:19:58.148Z,1003.89
2018-03-03T09:20:58.118Z,1003.83
2018-03-03T09:21:58.096Z,1003.93
2018-03-03T09:22:58.071Z,1003.84
2018-03-03T09:23:58.041Z,1003.74
2018-03-03T09:24:58.012Z,1003.81
2018-03-03T09:25:57.979Z,1003.84
2018-03-03T09:26:57.944Z,1003.90
2018-03-03T09:27:58.218Z,1003.91
2018-03-03T09:28:57.899Z,1003.87
2018-03-03T09:29:57.863Z,1003.82
2018-03-03T09:30:57.835Z,1003.66
2018-03-03T09:31:57.843Z,1003.67
2018-03-03T09:32:57.778Z,1003.61
2018-03-03T09:33:57.748Z,1003.53
2018-03-03T09:34:57.722Z,1003.57
2018-03-03T09:35:57.684Z,1003.57
2018-03-03T09:36:57.661Z,1003.61
2018-03-03T09:37:57.632Z,1003.59
2018-03-03T09:38:57.896Z,1003.68
2018-03-03T09:39:57.574Z,1003.64
2018-03-03T09:40:57.543Z,1003.58
2018-03-03T09:41:57.510Z,1003.48
2018-03-03T09:42:57.489Z,1003.55
2018-03-03T09:43:57.459Z,1003.55
2018-03-03T09:44:57.477Z,1003.57
2018-03-03T09:45:57.399Z,1003.64
2018-03-03T09:46:57.371Z,1003.67
2018-03-03T09:47:57.340Z,1003.54
2018-03-03T09:48:57.313Z,1003.59
2018-03-03T09:49:57.282Z,1003.69
2018-03-03T09:50:57.506Z,1003.53
2018-03-03T09:51:57.235Z,1003.31
2018-03-03T09:52:57.200Z,1003.75
2018-03-03T09:53:57.180Z,1003.67
2018-03-03T09:54:57.134Z,1003.62
2018-03-03T09:55:57.110Z,1003.58
2018-03-03T09:56:57.087Z,1003.16
2018-03-03T09:57:57.050Z,1003.43
2018-03-03T09:58:57.024Z,1003.56
2018-03-03T09:59:57.002Z,1003.47
2018-03-03T10:00:56.971Z,1003.51
2018-03-03T10:02:05.921Z,1003.64
2018-03-03T10:02:56.912Z,1003.52
2018-03-03T10:03:56.874Z,1003.52
2018-03-03T10:04:56.853Z,1003.46
2018-03-03T10:05:56.850Z,1003.62
2018-03-03T10:06:56.797Z,1003.42
2018-03-03T10:07:56.764Z,1003.42
2018-03-03T10:08:56.733Z,1003.41
2018-03-03T10:09:56.708Z,1003.54
2018-03-03T10:10:56.683Z,1003.54
2018-03-03T10:11:56.659Z,1003.24
2018-03-03T10:12:56.629Z,1003.07
2018-03-03T10:13:56.591Z,1003.52
2018-03-03T10:14:56.567Z,1003.42
2018-03-03T10:15:56.542Z,1003.49
2018-03-03T10:16:56.506Z,1003.41
2018-03-03T10:17:56.482Z,1002.79
2018-03-03T10:18:56.455Z,1003.51
2018-03-03T10:19:56.421Z,1003.42
2018-03-03T10:20:56.389Z,1003.50
2018-03-03T10:21:56.385Z,1003.51
2018-03-03T10:22:56.343Z,1003.41
2018-03-03T10:23:56.308Z,1003.37
2018-03-03T10:24:56.277Z,1003.37
2018-03-03T10:25:56.245Z,1003.43
2018-03-03T10:26:56.215Z,1003.47
2018-03-03T10:27:56.189Z,1003.37
2018-03-03T10:28:56.164Z,1003.30
2018-03-03T10:29:56.135Z,1003.30
2018-03-03T10:30:56.105Z,1003.42
2018-03-03T10:31:56.380Z,1003.21
2018-03-03T10:32:56.053Z,1003.29
2018-03-03T10:33:56.023Z,1003.26
2018-03-03T10:34:55.998Z,1003.33
2018-03-03T10:35:55.966Z,1003.36
2018-03-03T10:36:55.939Z,1003.08
2018-03-03T10:37:55.912Z,1003.30
2018-03-03T10:38:55.875Z,1003.27
2018-03-03T10:39:55.849Z,1003.37
2018-03-03T10:40:55.818Z,1003.12
2018-03-03T10:41:55.790Z,1003.36
2018-03-03T10:42:55.767Z,1003.41
2018-03-03T10:43:56.043Z,1003.34
2018-03-03T10:44:55.709Z,1003.43
2018-03-03T10:45:55.673Z,1003.26
2018-03-03T10:46:55.646Z,1003.46
2018-03-03T10:47:55.624Z,1003.34
2018-03-03T10:48:55.628Z,1003.37
2018-03-03T10:49:55.572Z,1003.49
2018-03-03T10:50:55.542Z,1003.23
2018-03-03T10:51:55.505Z,1003.49
2018-03-03T10:52:55.475Z,1003.47
2018-03-03T10:53:55.454Z,1003.50
2018-03-03T10:54:55.444Z,1003.52
2018-03-03T10:55:55.388Z,1003.50
2018-03-03T10:56:55.364Z,1003.45
2018-03-03T10:57:55.335Z,1003.54
2018-03-03T10:58:55.317Z,1003.62
2018-03-03T10:59:55.281Z,1003.28
2018-03-03T11:00:55.505Z,1003.64
2018-03-03T11:01:55.225Z,1003.83
2018-03-03T11:02:55.191Z,1003.97
2018-03-03T11:03:55.173Z,1003.97
2018-03-03T11:04:55.142Z,1003.97
2018-03-03T11:05:55.113Z,1003.92
2018-03-03T11:06:55.088Z,1003.93
2018-03-03T11:07:55.055Z,1004.00
2018-03-03T11:08:55.026Z,1003.97
2018-03-03T11:09:55.001Z,1003.83
2018-03-03T11:10:54.977Z,1003.98
2018-03-03T11:11:54.944Z,1004.15
2018-03-03T11:12:54.916Z,1004.34
2018-03-03T11:13:54.897Z,1004.60
2018-03-03T11:14:54.858Z,1004.47
2018-03-03T11:15:54.835Z,1004.68
2018-03-03T11:16:54.808Z,1004.78
2018-03-03T11:17:54.793Z,1004.90
2018-03-03T11:18:54.756Z,1004.94
2018-03-03T11:19:54.729Z,1005.15
2018-03-03T11:20:54.699Z,1005.24
2018-03-03T11:21:54.673Z,1005.04
2018-03-03T11:22:54.650Z,1005.15
2018-03-03T11:23:54.615Z,1004.97
2018-03-03T11:24:54.584Z,1004.94
2018-03-03T11:25:54.564Z,1004.92
2018-03-03T11:26:54.534Z,1004.94
2018-03-03T11:27:54.503Z,1004.92
2018-03-03T11:28:54.478Z,1004.94
2018-03-03T11:29:54.454Z,1004.77
2018-03-03T11:30:54.421Z,1004.81
2018-03-03T11:31:54.397Z,1004.91
2018-03-03T11:32:54.374Z,1004.90
2018-03-03T11:33:54.339Z,1004.70
2018-03-03T11:34:54.313Z,1004.75
2018-03-03T11:35:54.291Z,1004.80
2018-03-03T11:36:54.265Z,1004.42
2018-03-03T11:37:54.239Z,1004.70
2018-03-03T11:38:54.210Z,1004.68
2018-03-03T11:39:54.183Z,1004.53
2018-03-03T11:40:54.158Z,1004.55
2018-03-03T11:41:54.159Z,1004.72
2018-03-03T11:42:54.100Z,1004.58
2018-03-03T11:43:54.077Z,1004.55
2018-03-03T11:44:54.047Z,1004.63
2018-03-03T11:45:54.013Z,1004.59
2018-03-03T11:46:54.006Z,1004.62
2018-03-03T11:47:54.212Z,1004.53
2018-03-03T11:48:53.944Z,1004.35
2018-03-03T11:49:53.910Z,1004.55
2018-03-03T11:50:53.890Z,1004.65
2018-03-03T11:51:53.857Z,1004.73
2018-03-03T11:52:53.829Z,1004.56
2018-03-03T11:53:53.812Z,1004.55
2018-03-03T11:54:53.792Z,1004.61
2018-03-03T11:55:53.746Z,1004.49
2018-03-03T11:56:53.716Z,1004.53
2018-03-03T11:57:53.696Z,1004.53
2018-03-03T11:58:53.967Z,1004.47
2018-03-03T11:59:53.647Z,1004.40
2018-03-03T12:00:53.614Z,1004.43
2018-03-03T12:01:53.594Z,1004.48
2018-03-03T12:02:53.565Z,1004.47
2018-03-03T12:03:53.538Z,1004.23
2018-03-03T12:04:53.764Z,1004.34